createdAt,value
2019-06-15T00:00:25.277Z,99.99
2019-06-15T00:01:25.303Z,99.99
2019-06-15T00:02:25.299Z,99.99
2019-06-15T00:03:25.314Z,99.99
2019-06-15T00:04:25.392Z,99.99
2019-06-15T00:05:25.349Z,99.99
2019-06-15T00:06:25.370Z,99.99
2019-06-15T00:07:25.445Z,99.99
2019-06-15T00:08:25.399Z,99.99
2019-06-15T00:09:25.442Z,99.99
2019-06-15T00:10:25.433Z,99.99
2019-06-15T00:11:25.561Z,99.99
2019-06-15T00:12:25.488Z,99.99
2019-06-15T00:13:25.657Z,99.99
2019-06-15T00:14:25.702Z,99.99
2019-06-15T00:15:25.516Z,99.99
2019-06-15T00:16:25.532Z,99.99
2019-06-15T00:17:25.572Z,99.99
2019-06-15T00:18:25.570Z,99.99
2019-06-15T00:19:25.630Z,99.99
2019-06-15T00:20:25.608Z,99.99
2019-06-15T00:21:25.622Z,99.99
2019-06-15T00:22:25.639Z,99.99
2019-06-15T00:23:25.668Z,99.99
2019-06-15T00:24:34.889Z,99.99
2019-06-15T00:25:25.683Z,99.99
2019-06-15T00:26:25.707Z,99.99
2019-06-15T00:27:25.723Z,99.99
2019-06-15T00:28:25.735Z,99.99
2019-06-15T00:29:25.905Z,99.99
2019-06-15T00:30:25.773Z,99.99
2019-06-15T00:31:25.871Z,99.99
2019-06-15T00:32:25.816Z,99.99
2019-06-15T00:33:25.814Z,99.99
2019-06-15T00:34:26.174Z,99.99
2019-06-15T00:35:25.855Z,99.99
2019-06-15T00:36:25.865Z,99.99
2019-06-15T00:37:25.889Z,99.99
2019-06-15T00:38:25.902Z,99.99
2019-06-15T00:39:25.915Z,99.99
2019-06-15T00:40:25.940Z,99.99
2019-06-15T00:41:25.959Z,99.99
2019-06-15T00:42:26.024Z,99.99
2019-06-15T00:43:26.043Z,99.99
2019-06-15T00:44:26.016Z,99.99
2019-06-15T00:45:26.011Z,99.99
2019-06-15T00:46:26.078Z,99.99
2019-06-15T00:47:26.045Z,99.99
2019-06-15T00:48:26.115Z,99.99
2019-06-15T00:49:26.077Z,99.99
2019-06-15T00:50:26.099Z,99.99
2019-06-15T00:51:26.139Z,99.99
2019-06-15T00:52:26.128Z,99.99
2019-06-15T00:53:26.154Z,99.99
2019-06-15T00:54:26.180Z,99.99
2019-06-15T00:55:26.180Z,99.99
2019-06-15T00:56:26.205Z,99.99
2019-06-15T00:57:26.214Z,99.99
2019-06-15T00:58:26.224Z,99.99
2019-06-15T00:59:26.246Z,99.99
2019-06-15T01:00:26.270Z,99.99
2019-06-15T01:01:26.289Z,99.99
2019-06-15T01:02:26.298Z,99.99
2019-06-15T01:03:26.314Z,99.99
2019-06-15T01:04:26.326Z,99.99
2019-06-15T01:05:26.360Z,99.99
2019-06-15T01:06:26.360Z,99.99
2019-06-15T01:07:26.391Z,99.99
2019-06-15T01:08:26.737Z,99.99
2019-06-15T01:09:26.404Z,99.99
2019-06-15T01:10:26.455Z,99.99
2019-06-15T01:11:26.438Z,99.99
2019-06-15T01:12:26.451Z,99.99
2019-06-15T01:13:26.486Z,99.99
2019-06-15T01:14:26.490Z,99.99
2019-06-15T01:15:26.519Z,99.99
2019-06-15T01:16:26.530Z,99.99
2019-06-15T01:17:26.872Z,99.99
2019-06-15T01:18:26.558Z,99.99
2019-06-15T01:19:26.614Z,99.99
2019-06-15T01:20:26.680Z,99.99
2019-06-15T01:21:26.612Z,99.99
2019-06-15T01:22:26.629Z,99.99
2019-06-15T01:23:26.634Z,99.99
2019-06-15T01:24:26.666Z,99.99
2019-06-15T01:25:26.670Z,99.99
2019-06-15T01:26:26.693Z,99.99
2019-06-15T01:27:26.698Z,99.99
2019-06-15T01:28:26.776Z,99.99
2019-06-15T01:29:26.737Z,99.99
2019-06-15T01:30:26.750Z,99.99
2019-06-15T01:31:26.777Z,99.99
2019-06-15T01:32:26.807Z,99.99
2019-06-15T01:33:26.817Z,99.99
2019-06-15T01:34:26.815Z,99.99
2019-06-15T01:35:26.852Z,99.99
2019-06-15T01:36:26.847Z,99.99
2019-06-15T01:37:26.865Z,99.99
2019-06-15T01:38:26.944Z,99.99
2019-06-15T01:39:26.897Z,99.99
2019-06-15T01:40:26.914Z,99.99
2019-06-15T01:41:26.933Z,99.99
2019-06-15T01:42:26.950Z,99.99
2019-06-15T01:43:26.963Z,99.99
2019-06-15T01:44:26.977Z,99.99
2019-06-15T01:45:26.997Z,99.99
2019-06-15T01:46:27.110Z,99.99
2019-06-15T01:47:27.089Z,99.99
2019-06-15T01:48:27.062Z,99.99
2019-06-15T01:49:27.067Z,99.99
2019-06-15T01:50:27.097Z,99.99
2019-06-15T01:51:27.123Z,99.99
2019-06-15T01:52:27.113Z,99.99
2019-06-15T01:53:27.150Z,99.99
2019-06-15T01:54:27.150Z,99.99
2019-06-15T01:55:27.159Z,99.99
2019-06-15T01:56:27.170Z,99.99
2019-06-15T01:57:27.190Z,99.99
2019-06-15T01:58:27.232Z,99.99
2019-06-15T01:59:27.234Z,99.99
2019-06-15T02:00:27.242Z,99.99
2019-06-15T02:01:27.440Z,99.99
2019-06-15T02:02:27.285Z,99.99
2019-06-15T02:03:27.384Z,99.99
2019-06-15T02:04:27.341Z,99.99
2019-06-15T02:05:27.343Z,99.99
2019-06-15T02:06:27.343Z,99.99
2019-06-15T02:07:27.354Z,99.99
2019-06-15T02:08:27.373Z,99.99
2019-06-15T02:09:27.604Z,99.99
2019-06-15T02:10:27.424Z,99.99
2019-06-15T02:11:27.433Z,99.99
2019-06-15T02:12:27.570Z,99.99
2019-06-15T02:13:27.507Z,99.99
2019-06-15T02:14:27.482Z,99.99
2019-06-15T02:15:27.486Z,99.99
2019-06-15T02:16:27.523Z,99.99
2019-06-15T02:17:27.519Z,99.99
2019-06-15T02:18:27.715Z,99.99
2019-06-15T02:19:27.667Z,99.99
2019-06-15T02:20:27.622Z,99.99
2019-06-15T02:21:27.583Z,99.99
2019-06-15T02:22:27.592Z,99.99
2019-06-15T02:23:27.647Z,99.99
2019-06-15T02:24:27.636Z,99.99
2019-06-15T02:25:35.705Z,99.99
2019-06-15T02:26:27.675Z,99.99
2019-06-15T02:27:27.691Z,99.99
2019-06-15T02:28:27.728Z,99.99
2019-06-15T02:29:27.712Z,99.99
2019-06-15T02:30:27.742Z,99.99
2019-06-15T02:31:27.768Z,99.99
2019-06-15T02:32:27.755Z,99.99
2019-06-15T02:33:27.884Z,99.99
2019-06-15T02:34:27.790Z,99.99
2019-06-15T02:35:27.802Z,99.99
2019-06-15T02:36:27.853Z,99.99
2019-06-15T02:37:27.844Z,99.99
2019-06-15T02:38:27.868Z,99.99
2019-06-15T02:39:27.868Z,99.99
2019-06-15T02:40:27.895Z,99.99
2019-06-15T02:41:27.913Z,99.99
2019-06-15T02:42:27.930Z,99.99
2019-06-15T02:43:27.932Z,99.99
2019-06-15T02:44:27.961Z,99.99
2019-06-15T02:45:27.983Z,99.99
2019-06-15T02:46:28.011Z,99.99
2019-06-15T02:47:28.001Z,99.99
2019-06-15T02:48:28.026Z,99.99
2019-06-15T02:49:28.036Z,99.99
2019-06-15T02:50:28.054Z,99.99
2019-06-15T02:51:28.061Z,99.99
2019-06-15T02:52:28.080Z,99.99
2019-06-15T02:53:28.097Z,99.99
2019-06-15T02:54:28.116Z,99.99
2019-06-15T02:55:28.134Z,99.99
2019-06-15T02:56:28.162Z,99.99
2019-06-15T02:57:28.451Z,99.99
2019-06-15T02:58:29.521Z,99.99
2019-06-15T02:59:28.683Z,99.99
2019-06-15T03:00:29.184Z,99.99
2019-06-15T03:01:28.673Z,99.99
2019-06-15T03:02:28.251Z,99.99
2019-06-15T03:03:28.298Z,99.99
2019-06-15T03:04:28.279Z,99.99
2019-06-15T03:05:28.295Z,99.99
2019-06-15T03:06:28.374Z,99.99
2019-06-15T03:07:28.340Z,99.99
2019-06-15T03:08:28.385Z,99.99
2019-06-15T03:09:28.355Z,99.99
2019-06-15T03:10:28.396Z,99.99
2019-06-15T03:11:28.402Z,99.99
2019-06-15T03:12:28.447Z,99.99
2019-06-15T03:13:28.420Z,99.99
2019-06-15T03:14:28.451Z,99.99
2019-06-15T03:15:28.447Z,99.99
2019-06-15T03:16:28.469Z,99.99
2019-06-15T03:17:28.529Z,99.99
2019-06-15T03:18:28.522Z,99.99
2019-06-15T03:19:28.528Z,99.99
2019-06-15T03:20:28.541Z,99.99
2019-06-15T03:21:28.550Z,99.99
2019-06-15T03:22:28.569Z,99.99
2019-06-15T03:23:28.581Z,99.99
2019-06-15T03:24:28.614Z,99.99
2019-06-15T03:25:28.626Z,99.99
2019-06-15T03:26:28.647Z,99.99
2019-06-15T03:27:28.653Z,99.99
2019-06-15T03:28:28.712Z,99.99
2019-06-15T03:29:28.680Z,99.99
2019-06-15T03:30:28.751Z,99.99
2019-06-15T03:31:28.741Z,99.99
2019-06-15T03:32:28.767Z,99.99
2019-06-15T03:33:28.753Z,99.99
2019-06-15T03:34:28.810Z,99.99
2019-06-15T03:35:28.913Z,99.99
2019-06-15T03:36:29.084Z,99.99
2019-06-15T03:37:28.816Z,99.99
2019-06-15T03:38:28.836Z,99.99
2019-06-15T03:39:28.866Z,99.99
2019-06-15T03:40:28.861Z,99.99
2019-06-15T03:41:28.877Z,99.99
2019-06-15T03:42:28.890Z,99.99
2019-06-15T03:43:28.912Z,99.99
2019-06-15T03:44:28.937Z,99.99
2019-06-15T03:45:28.979Z,99.99
2019-06-15T03:46:28.977Z,99.99
2019-06-15T03:47:28.967Z,99.99
2019-06-15T03:48:29.014Z,99.99
2019-06-15T03:50:29.234Z,99.99
2019-06-15T03:51:29.067Z,99.99
2019-06-15T03:52:29.189Z,99.99
2019-06-15T03:54:29.078Z,99.99
2019-06-15T03:55:29.106Z,99.99
2019-06-15T03:56:29.157Z,99.99
2019-06-15T03:57:29.155Z,99.99
2019-06-15T03:58:29.145Z,99.99
2019-06-15T03:59:29.170Z,99.99
2019-06-15T04:00:29.234Z,99.99
2019-06-15T04:01:29.201Z,99.99
2019-06-15T04:02:29.244Z,99.99
2019-06-15T04:04:29.271Z,99.99
2019-06-15T04:05:29.273Z,99.99
2019-06-15T04:06:29.277Z,99.99
2019-06-15T04:07:29.342Z,99.99
2019-06-15T04:08:30.086Z,99.99
2019-06-15T04:09:29.324Z,99.99
2019-06-15T04:10:29.337Z,99.99
2019-06-15T04:11:29.712Z,99.99
2019-06-15T04:12:29.491Z,99.99
2019-06-15T04:13:29.399Z,99.99
2019-06-15T04:14:29.421Z,99.99
2019-06-15T04:15:29.419Z,99.99
2019-06-15T04:16:29.448Z,99.99
2019-06-15T04:17:29.524Z,99.99
2019-06-15T04:18:29.548Z,99.99
2019-06-15T04:19:29.489Z,99.99
2019-06-15T04:20:29.801Z,99.99
2019-06-15T04:21:29.534Z,99.99
2019-06-15T04:22:29.541Z,99.99
2019-06-15T04:23:29.563Z,99.99
2019-06-15T04:24:29.568Z,99.99
2019-06-15T04:25:29.605Z,99.99
2019-06-15T04:26:36.063Z,99.99
2019-06-15T04:27:29.641Z,99.99
2019-06-15T04:28:29.646Z,99.99
2019-06-15T04:29:29.661Z,99.99
2019-06-15T04:30:29.676Z,99.99
2019-06-15T04:31:29.675Z,99.99
2019-06-15T04:32:29.694Z,99.99
2019-06-15T04:33:29.714Z,99.99
2019-06-15T04:34:29.731Z,99.99
2019-06-15T04:35:29.737Z,99.99
2019-06-15T04:36:29.765Z,99.99
2019-06-15T04:37:29.790Z,99.99
2019-06-15T04:38:29.796Z,99.99
2019-06-15T04:39:29.849Z,99.99
2019-06-15T04:40:29.845Z,99.99
2019-06-15T04:41:29.900Z,99.99
2019-06-15T04:42:29.870Z,99.99
2019-06-15T04:43:29.880Z,99.99
2019-06-15T04:44:29.895Z,99.99
2019-06-15T04:45:29.903Z,99.99
2019-06-15T04:46:32.091Z,99.99
2019-06-15T04:47:29.934Z,99.99
2019-06-15T04:48:29.952Z,99.99
2019-06-15T04:49:29.959Z,99.99
2019-06-15T04:50:29.978Z,99.99
2019-06-15T04:51:29.997Z,99.99
2019-06-15T04:52:30.016Z,99.99
2019-06-15T04:53:30.026Z,99.99
2019-06-15T04:54:30.040Z,99.99
2019-06-15T04:55:30.057Z,99.99
2019-06-15T04:56:30.082Z,99.99
2019-06-15T04:57:30.088Z,99.99
2019-06-15T04:58:30.103Z,99.99
2019-06-15T04:59:30.118Z,99.99
2019-06-15T05:00:30.133Z,99.99
2019-06-15T05:01:30.164Z,99.99
2019-06-15T05:02:30.173Z,99.99
2019-06-15T05:03:30.219Z,99.99
2019-06-15T05:04:30.202Z,99.99
2019-06-15T05:05:30.215Z,99.99
2019-06-15T05:06:30.242Z,99.99
2019-06-15T05:07:30.265Z,99.99
2019-06-15T05:08:30.265Z,99.99
2019-06-15T05:09:30.284Z,99.99
2019-06-15T05:10:30.300Z,99.99
2019-06-15T05:11:30.315Z,99.99
2019-06-15T05:12:30.333Z,99.99
2019-06-15T05:13:30.449Z,99.99
2019-06-15T05:14:30.436Z,99.99
2019-06-15T05:15:30.381Z,99.99
2019-06-15T05:16:30.397Z,99.99
2019-06-15T05:17:30.528Z,99.99
2019-06-15T05:18:30.521Z,99.99
2019-06-15T05:19:30.442Z,99.99
2019-06-15T05:20:30.459Z,99.99
2019-06-15T05:21:30.622Z,99.99
2019-06-15T05:22:30.524Z,99.99
2019-06-15T05:23:30.859Z,99.99
2019-06-15T05:24:30.528Z,99.99
2019-06-15T05:25:30.544Z,99.99
2019-06-15T05:26:30.580Z,99.99
2019-06-15T05:27:30.607Z,99.99
2019-06-15T05:28:30.601Z,99.99
2019-06-15T05:29:30.627Z,99.99
2019-06-15T05:30:30.624Z,99.99
2019-06-15T05:31:30.702Z,99.99
2019-06-15T05:34:30.690Z,99.99
2019-06-15T05:35:30.721Z,99.99
2019-06-15T05:36:30.724Z,99.99
2019-06-15T05:37:30.747Z,99.99
2019-06-15T05:38:30.777Z,99.99
2019-06-15T05:39:30.788Z,99.99
2019-06-15T05:40:30.789Z,99.99
2019-06-15T05:41:30.818Z,99.99
2019-06-15T05:42:31.283Z,99.99
2019-06-15T05:43:30.982Z,99.99
2019-06-15T05:46:31.013Z,99.99
2019-06-15T05:47:31.216Z,99.99
2019-06-15T05:48:31.047Z,99.99
2019-06-15T05:49:30.935Z,99.99
2019-06-15T05:50:30.954Z,99.99
2019-06-15T05:51:30.963Z,99.99
2019-06-15T05:52:30.979Z,99.99
2019-06-15T05:53:31.000Z,99.99
2019-06-15T05:54:31.024Z,99.99
2019-06-15T05:55:31.027Z,99.99
2019-06-15T05:56:33.478Z,99.99
2019-06-15T05:57:31.078Z,99.99
2019-06-15T05:59:31.101Z,99.99
2019-06-15T06:00:31.142Z,99.99
2019-06-15T06:01:31.136Z,99.99
2019-06-15T06:02:31.150Z,99.99
2019-06-15T06:03:31.160Z,99.99
2019-06-15T06:04:31.173Z,99.99
2019-06-15T06:05:31.197Z,99.99
2019-06-15T06:06:31.216Z,99.99
2019-06-15T06:07:31.220Z,99.99
2019-06-15T06:08:31.239Z,99.99
2019-06-15T06:09:31.270Z,99.99
2019-06-15T06:10:31.271Z,99.99
2019-06-15T06:11:31.292Z,99.99
2019-06-15T06:12:31.300Z,99.99
2019-06-15T06:13:31.319Z,99.99
2019-06-15T06:14:31.343Z,99.99
2019-06-15T06:15:31.351Z,99.99
2019-06-15T06:16:31.402Z,99.99
2019-06-15T06:17:31.387Z,99.99
2019-06-15T06:18:31.397Z,99.99
2019-06-15T06:19:31.491Z,99.99
2019-06-15T06:20:31.531Z,99.99
2019-06-15T06:21:31.649Z,99.99
2019-06-15T06:22:31.467Z,99.99
2019-06-15T06:23:31.479Z,99.99
2019-06-15T06:24:31.496Z,99.99
2019-06-15T06:25:31.627Z,99.99
2019-06-15T06:26:31.530Z,99.99
2019-06-15T06:27:36.427Z,99.99
2019-06-15T06:28:31.583Z,99.99
2019-06-15T06:29:31.608Z,99.99
2019-06-15T06:30:31.592Z,99.99
2019-06-15T06:31:31.622Z,99.99
2019-06-15T06:32:31.622Z,99.99
2019-06-15T06:33:31.931Z,99.99
2019-06-15T06:35:31.672Z,99.99
2019-06-15T06:36:31.694Z,99.99
2019-06-15T06:37:31.713Z,99.99
2019-06-15T06:38:31.741Z,99.99
2019-06-15T06:39:31.736Z,99.99
2019-06-15T06:40:31.753Z,99.99
2019-06-15T06:41:31.776Z,99.99
2019-06-15T06:42:32.988Z,99.99
2019-06-15T06:43:31.898Z,99.99
2019-06-15T06:45:31.831Z,99.99
2019-06-15T06:46:31.857Z,99.99
2019-06-15T06:47:31.864Z,99.99
2019-06-15T06:48:31.901Z,99.99
2019-06-15T06:49:31.897Z,99.99
2019-06-15T06:50:31.913Z,99.99
2019-06-15T06:51:31.987Z,99.99
2019-06-15T06:52:31.948Z,99.99
2019-06-15T06:53:31.966Z,99.99
2019-06-15T06:54:32.101Z,99.99
2019-06-15T06:56:32.009Z,99.99
2019-06-15T06:57:32.416Z,99.99
2019-06-15T06:58:32.069Z,99.99
2019-06-15T06:59:32.053Z,99.99
2019-06-15T07:00:32.071Z,99.99
2019-06-15T07:01:32.091Z,99.99
2019-06-15T07:02:32.560Z,99.99
2019-06-15T07:03:32.372Z,99.99
2019-06-15T07:04:32.558Z,99.99
2019-06-15T07:05:32.167Z,99.99
2019-06-15T07:06:32.176Z,99.99
2019-06-15T07:07:32.185Z,99.99
2019-06-15T07:08:32.224Z,99.99
2019-06-15T07:09:32.226Z,99.99
2019-06-15T07:10:32.234Z,99.99
2019-06-15T07:11:32.272Z,99.99
2019-06-15T07:12:32.270Z,99.99
2019-06-15T07:13:32.287Z,99.99
2019-06-15T07:14:32.302Z,99.99
2019-06-15T07:15:32.319Z,99.99
2019-06-15T07:16:32.335Z,99.99
2019-06-15T07:17:32.358Z,99.99
2019-06-15T07:18:32.367Z,99.99
2019-06-15T07:19:33.634Z,99.99
2019-06-15T07:20:32.407Z,99.99
2019-06-15T07:21:32.477Z,99.99
2019-06-15T07:22:32.774Z,99.99
2019-06-15T07:23:32.445Z,99.99
2019-06-15T07:24:32.461Z,99.99
2019-06-15T07:25:32.481Z,99.99
2019-06-15T07:26:32.498Z,99.99
2019-06-15T07:27:33.361Z,99.99
2019-06-15T07:28:32.673Z,99.99
2019-06-15T07:29:32.556Z,99.99
2019-06-15T07:30:32.744Z,99.99
2019-06-15T07:31:32.588Z,99.99
2019-06-15T07:32:32.609Z,99.99
2019-06-15T07:33:32.649Z,99.99
2019-06-15T07:34:32.633Z,99.99
2019-06-15T07:35:33.145Z,99.99
2019-06-15T07:36:32.703Z,99.99
2019-06-15T07:37:32.682Z,99.99
2019-06-15T07:38:32.843Z,99.99
2019-06-15T07:39:32.712Z,99.99
2019-06-15T07:40:32.734Z,99.99
2019-06-15T07:41:32.749Z,99.99
2019-06-15T07:42:32.764Z,99.99
2019-06-15T07:43:32.776Z,99.99
2019-06-15T07:44:32.795Z,99.99
2019-06-15T07:45:32.835Z,99.99
2019-06-15T07:46:33.541Z,99.99
2019-06-15T07:47:34.218Z,99.99
2019-06-15T07:48:32.901Z,99.99
2019-06-15T07:49:32.876Z,99.99
2019-06-15T07:50:32.895Z,99.99
2019-06-15T07:51:32.917Z,99.99
2019-06-15T07:52:32.965Z,99.99
2019-06-15T07:53:32.954Z,99.99
2019-06-15T07:54:36.084Z,99.99
2019-06-15T07:55:33.019Z,99.99
2019-06-15T07:56:33.036Z,99.99
2019-06-15T07:57:34.178Z,99.99
2019-06-15T07:58:34.503Z,99.99
2019-06-15T07:59:33.053Z,99.99
2019-06-15T08:00:33.064Z,99.99
2019-06-15T08:01:33.071Z,99.99
2019-06-15T08:02:33.164Z,99.99
2019-06-15T08:03:33.271Z,99.99
2019-06-15T08:04:33.132Z,99.99
2019-06-15T08:05:33.135Z,99.99
2019-06-15T08:06:33.155Z,99.99
2019-06-15T08:07:33.174Z,99.99
2019-06-15T08:08:33.253Z,99.99
2019-06-15T08:09:33.212Z,99.99
2019-06-15T08:10:33.213Z,99.99
2019-06-15T08:11:33.240Z,99.99
2019-06-15T08:12:33.246Z,99.99
2019-06-15T08:13:33.260Z,99.99
2019-06-15T08:14:33.280Z,99.99
2019-06-15T08:15:33.293Z,99.99
2019-06-15T08:16:33.315Z,99.99
2019-06-15T08:17:33.325Z,99.99
2019-06-15T08:18:33.349Z,99.99
2019-06-15T08:19:33.385Z,99.99
2019-06-15T08:20:33.394Z,99.99
2019-06-15T08:21:33.392Z,99.99
2019-06-15T08:22:33.401Z,99.99
2019-06-15T08:23:35.974Z,99.99
2019-06-15T08:24:33.446Z,99.99
2019-06-15T08:25:33.450Z,99.99
2019-06-15T08:26:33.474Z,99.99
2019-06-15T08:27:33.500Z,99.99
2019-06-15T08:28:40.215Z,99.99
2019-06-15T08:29:34.244Z,99.99
2019-06-15T08:30:33.588Z,99.99
2019-06-15T08:31:33.557Z,99.99
2019-06-15T08:32:33.575Z,99.99
2019-06-15T08:33:33.592Z,99.99
2019-06-15T08:34:33.595Z,99.99
2019-06-15T08:35:33.914Z,99.99
2019-06-15T08:36:33.713Z,99.99
2019-06-15T08:37:33.640Z,99.99
2019-06-15T08:38:33.663Z,99.99
2019-06-15T08:39:33.677Z,99.99
2019-06-15T08:41:33.701Z,99.99
2019-06-15T08:42:33.717Z,99.99
2019-06-15T08:43:33.900Z,99.99
2019-06-15T08:44:33.765Z,99.99
2019-06-15T08:46:33.814Z,99.99
2019-06-15T08:47:33.799Z,99.99
2019-06-15T08:48:33.813Z,99.99
2019-06-15T08:49:33.905Z,99.99
2019-06-15T08:50:33.850Z,99.99
2019-06-15T08:51:33.873Z,99.99
2019-06-15T08:52:33.882Z,99.99
2019-06-15T08:53:33.899Z,99.99
2019-06-15T08:54:33.913Z,99.99
2019-06-15T08:55:34.541Z,99.99
2019-06-15T08:56:34.301Z,99.99
2019-06-15T08:57:33.967Z,99.99
2019-06-15T08:58:33.978Z,99.99
2019-06-15T08:59:33.990Z,99.99
2019-06-15T09:00:34.203Z,99.99
2019-06-15T09:01:34.027Z,99.99
2019-06-15T09:02:34.041Z,99.99
2019-06-15T09:03:34.046Z,99.99
2019-06-15T09:04:34.067Z,99.99
2019-06-15T09:05:34.088Z,99.99
2019-06-15T09:06:34.124Z,99.99
2019-06-15T09:07:34.182Z,99.99
2019-06-15T09:08:34.132Z,99.99
2019-06-15T09:09:34.153Z,99.99
2019-06-15T09:10:34.765Z,99.99
2019-06-15T09:11:36.622Z,99.99
2019-06-15T09:12:34.228Z,99.99
2019-06-15T09:13:34.212Z,99.99
2019-06-15T09:14:34.628Z,99.99
2019-06-15T09:15:34.241Z,99.99
2019-06-15T09:16:34.259Z,99.99
2019-06-15T09:18:34.953Z,99.99
2019-06-15T09:19:34.350Z,99.99
2019-06-15T09:20:34.338Z,99.99
2019-06-15T09:21:34.345Z,99.99
2019-06-15T09:22:34.358Z,99.99
2019-06-15T09:23:34.379Z,99.99
2019-06-15T09:24:34.384Z,99.99
2019-06-15T09:25:36.773Z,99.99
2019-06-15T09:26:34.427Z,99.99
2019-06-15T09:27:34.438Z,99.99
2019-06-15T09:28:34.477Z,99.99
2019-06-15T09:29:34.478Z,99.99
2019-06-15T09:30:34.483Z,99.99
2019-06-15T09:31:34.500Z,99.99
2019-06-15T09:32:34.513Z,99.99
2019-06-15T09:33:34.528Z,99.99
2019-06-15T09:34:34.553Z,99.99
2019-06-15T09:35:34.561Z,99.99
2019-06-15T09:37:34.662Z,99.99
2019-06-15T09:38:34.645Z,99.99
2019-06-15T09:39:34.629Z,99.99
2019-06-15T09:40:34.647Z,99.99
2019-06-15T09:41:34.663Z,99.99
2019-06-15T09:42:34.678Z,99.99
2019-06-15T09:43:34.688Z,99.99
2019-06-15T09:44:34.706Z,99.99
2019-06-15T09:45:34.724Z,99.99
2019-06-15T09:46:34.750Z,99.99
2019-06-15T09:47:34.755Z,99.99
2019-06-15T09:48:34.768Z,99.99
2019-06-15T09:49:34.795Z,99.99
2019-06-15T09:50:34.802Z,99.99
2019-06-15T09:51:34.829Z,99.99
2019-06-15T09:52:34.835Z,99.99
2019-06-15T09:53:34.856Z,99.99
2019-06-15T09:54:34.880Z,99.99
2019-06-15T09:55:34.886Z,99.99
2019-06-15T09:56:35.892Z,99.99
2019-06-15T09:57:35.285Z,99.99
2019-06-15T09:58:36.146Z,99.99
2019-06-15T09:59:38.290Z,99.99
2019-06-15T10:00:34.974Z,99.99
2019-06-15T10:01:34.987Z,99.99
2019-06-15T10:02:35.010Z,99.99
2019-06-15T10:03:35.019Z,99.99
2019-06-15T10:04:35.034Z,99.99
2019-06-15T10:05:35.058Z,99.99
2019-06-15T10:06:35.087Z,99.99
2019-06-15T10:07:35.088Z,99.99
2019-06-15T10:08:35.113Z,99.99
2019-06-15T10:09:35.124Z,99.99
2019-06-15T10:10:35.183Z,99.99
2019-06-15T10:11:35.215Z,99.99
2019-06-15T10:12:35.210Z,99.99
2019-06-15T10:13:35.905Z,99.99
2019-06-15T10:14:35.203Z,99.99
2019-06-15T10:15:35.226Z,99.99
2019-06-15T10:16:35.238Z,99.99
2019-06-15T10:17:35.252Z,99.99
2019-06-15T10:18:38.646Z,99.99
2019-06-15T10:20:37.281Z,99.99
2019-06-15T10:21:37.780Z,99.99
2019-06-15T10:24:35.707Z,99.99
2019-06-15T10:25:35.800Z,99.99
2019-06-15T10:26:36.773Z,99.99
2019-06-15T10:27:35.424Z,99.99
2019-06-15T10:28:35.436Z,99.99
2019-06-15T10:29:41.853Z,99.99
2019-06-15T10:30:35.486Z,99.99
2019-06-15T10:31:35.494Z,99.99
2019-06-15T10:32:35.515Z,99.99
2019-06-15T10:33:35.529Z,99.99
2019-06-15T10:34:35.538Z,99.99
2019-06-15T10:35:35.996Z,99.99
2019-06-15T10:36:35.579Z,99.99
2019-06-15T10:37:35.613Z,99.99
2019-06-15T10:38:35.923Z,99.99
2019-06-15T10:40:35.685Z,99.99
2019-06-15T10:41:35.716Z,99.99
2019-06-15T10:42:35.685Z,99.99
2019-06-15T10:43:35.703Z,99.99
2019-06-15T10:44:35.815Z,99.99
2019-06-15T10:45:36.263Z,99.99
2019-06-15T10:46:35.828Z,99.99
2019-06-15T10:48:35.782Z,99.99
2019-06-15T10:49:35.826Z,99.99
2019-06-15T10:50:36.312Z,99.99
2019-06-15T10:51:37.902Z,99.99
2019-06-15T10:52:36.236Z,99.99
2019-06-15T10:53:35.929Z,99.99
2019-06-15T10:54:35.881Z,99.99
2019-06-15T10:55:35.908Z,99.99
2019-06-15T10:56:35.939Z,99.99
2019-06-15T10:57:35.934Z,99.99
2019-06-15T10:58:36.008Z,99.99
2019-06-15T10:59:35.969Z,99.99
2019-06-15T11:00:36.029Z,99.99
2019-06-15T11:01:36.015Z,99.99
2019-06-15T11:02:36.029Z,99.99
2019-06-15T11:03:36.038Z,99.99
2019-06-15T11:04:36.057Z,99.99
2019-06-15T11:05:36.064Z,99.99
2019-06-15T11:06:36.087Z,99.99
2019-06-15T11:07:36.109Z,99.99
2019-06-15T11:08:36.156Z,99.99
2019-06-15T11:09:36.138Z,99.99
2019-06-15T11:10:37.145Z,99.99
2019-06-15T11:11:36.175Z,99.99
2019-06-15T11:12:45.771Z,99.99
2019-06-15T11:13:36.249Z,99.99
2019-06-15T11:14:36.259Z,99.99
2019-06-15T11:15:36.254Z,99.99
2019-06-15T11:16:36.565Z,99.99
2019-06-15T11:17:37.422Z,99.99
2019-06-15T11:18:37.958Z,99.99
2019-06-15T11:19:36.346Z,99.99
2019-06-15T11:20:36.846Z,99.99
2019-06-15T11:21:36.349Z,99.99
2019-06-15T11:22:36.384Z,99.99
2019-06-15T11:23:37.502Z,99.99
2019-06-15T11:24:36.378Z,99.99
2019-06-15T11:25:36.399Z,99.99
2019-06-15T11:26:36.425Z,99.99
2019-06-15T11:27:36.443Z,99.99
2019-06-15T11:28:36.473Z,99.99
2019-06-15T11:29:36.456Z,99.99
2019-06-15T11:30:36.474Z,99.99
2019-06-15T11:31:36.540Z,99.99
2019-06-15T11:32:36.517Z,99.99
2019-06-15T11:33:36.721Z,99.99
2019-06-15T11:34:36.581Z,99.99
2019-06-15T11:35:36.570Z,99.99
2019-06-15T11:36:36.578Z,99.99
2019-06-15T11:37:36.588Z,99.99
2019-06-15T11:38:36.611Z,99.99
2019-06-15T11:39:36.637Z,99.99
2019-06-15T11:40:36.646Z,99.99
2019-06-15T11:41:36.669Z,99.99
2019-06-15T11:42:36.670Z,99.99
2019-06-15T11:43:36.690Z,99.99
2019-06-15T11:44:36.705Z,99.99
2019-06-15T11:45:36.750Z,99.99
2019-06-15T11:46:37.322Z,99.99
2019-06-15T11:47:36.755Z,99.99
2019-06-15T11:48:36.781Z,99.99
2019-06-15T11:49:36.802Z,99.99
2019-06-15T11:50:36.820Z,99.99
2019-06-15T11:51:36.830Z,99.99
2019-06-15T11:52:36.877Z,99.99
2019-06-15T11:53:36.853Z,99.99
2019-06-15T11:54:36.875Z,99.99
2019-06-15T11:55:39.745Z,99.99
2019-06-15T11:56:36.913Z,99.99
2019-06-15T11:57:36.928Z,99.99
2019-06-15T11:58:36.947Z,99.99
2019-06-15T11:59:37.037Z,99.99
2019-06-15T12:00:37.002Z,99.99
2019-06-15T12:01:37.043Z,99.99
2019-06-15T12:02:37.015Z,99.99
2019-06-15T12:03:37.036Z,96.75
2019-06-15T12:04:37.081Z,96.84
2019-06-15T12:05:37.069Z,93.37
2019-06-15T12:06:37.244Z,92.21
2019-06-15T12:07:37.147Z,92.49
2019-06-15T12:08:37.123Z,90.08
2019-06-15T12:09:37.147Z,87.76
2019-06-15T12:10:37.152Z,87.08
2019-06-15T12:11:37.198Z,86.83
2019-06-15T12:12:37.190Z,84.22
2019-06-15T12:13:37.258Z,83.55
2019-06-15T12:14:37.243Z,85.19
2019-06-15T12:15:38.489Z,83.55
2019-06-15T12:16:37.267Z,84.95
2019-06-15T12:17:37.282Z,84.09
2019-06-15T12:18:37.321Z,84.22
2019-06-15T12:19:37.316Z,83.41
2019-06-15T12:20:39.041Z,85.01
2019-06-15T12:21:37.458Z,85.40
2019-06-15T12:22:37.425Z,84.86
2019-06-15T12:23:37.458Z,82.25
2019-06-15T12:24:37.413Z,81.57
2019-06-15T12:25:37.451Z,82.02
2019-06-15T12:26:37.453Z,83.56
2019-06-15T12:27:37.493Z,83.72
2019-06-15T12:28:37.516Z,83.66
2019-06-15T12:29:37.534Z,84.43
2019-06-15T12:30:46.867Z,82.50
2019-06-15T12:31:37.627Z,82.73
2019-06-15T12:32:37.556Z,80.57
2019-06-15T12:33:37.562Z,80.71
2019-06-15T12:34:37.590Z,79.60
2019-06-15T12:35:37.635Z,81.05
2019-06-15T12:36:37.656Z,81.53
2019-06-15T12:37:37.634Z,81.73
2019-06-15T12:38:37.675Z,82.21
2019-06-15T12:39:41.583Z,82.65
2019-06-15T12:40:37.693Z,83.14
2019-06-15T12:41:37.708Z,82.75
2019-06-15T12:42:37.724Z,83.67
2019-06-15T12:43:37.760Z,83.19
2019-06-15T12:44:37.812Z,84.06
2019-06-15T12:45:37.798Z,86.62
2019-06-15T12:46:37.802Z,86.24
2019-06-15T12:47:37.819Z,87.15
2019-06-15T12:48:37.831Z,86.08
2019-06-15T12:49:37.861Z,85.60
2019-06-15T12:50:37.885Z,83.09
2019-06-15T12:51:40.692Z,82.32
2019-06-15T12:52:37.917Z,82.51
2019-06-15T12:53:37.928Z,82.56
2019-06-15T12:54:37.967Z,81.53
2019-06-15T12:55:38.007Z,81.44
2019-06-15T12:56:38.052Z,81.24
2019-06-15T12:57:38.005Z,80.74
2019-06-15T12:58:38.084Z,78.69
2019-06-15T12:59:38.057Z,72.53
2019-06-15T13:00:38.077Z,73.18
2019-06-15T13:01:38.075Z,72.73
2019-06-15T13:02:38.100Z,72.02
2019-06-15T13:03:38.177Z,74.59
2019-06-15T13:04:38.130Z,76.87
2019-06-15T13:05:38.155Z,76.76
2019-06-15T13:06:38.194Z,72.47
2019-06-15T13:07:38.199Z,72.21
2019-06-15T13:08:38.218Z,71.95
2019-06-15T13:09:38.611Z,70.79
2019-06-15T13:10:38.783Z,69.82
2019-06-15T13:11:38.304Z,68.18
2019-06-15T13:12:38.299Z,68.12